sensor_id;sensor_type;location;lat;lon;timestamp;P1;durP1;ratioP1;P2;durP2;ratioP2
5217;SDS011;26539;51.064;6.346;2023-04-27T00:01:12;8.57;;;7.13;;
5217;SDS011;26539;51.064;6.346;2023-04-27T00:03:38;12.30;;;7.50;;
5217;SDS011;26539;51.064;6.346;2023-04-27T00:06:05;10.43;;;7.75;;
5217;SDS011;26539;51.064;6.346;2023-04-27T00:08:31;11.40;;;8.13;;
5217;SDS011;26539;51.064;6.346;2023-04-27T00:10:57;12.63;;;7.27;;
5217;SDS011;26539;51.064;6.346;2023-04-27T00:13:23;16.33;;;8.70;;
5217;SDS011;26539;51.064;6.346;2023-04-27T00:15:48;13.80;;;10.20;;
5217;SDS011;26539;51.064;6.346;2023-04-27T00:18:14;13.10;;;9.07;;
5217;SDS011;26539;51.064;6.346;2023-04-27T00:20:47;13.60;;;9.23;;
5217;SDS011;26539;51.064;6.346;2023-04-27T00:24:04;13.05;;;8.25;;
5217;SDS011;26539;51.064;6.346;2023-04-27T00:27:08;14.90;;;8.13;;
5217;SDS011;26539;51.064;6.346;2023-04-27T00:29:51;12.77;;;7.80;;
5217;SDS011;26539;51.064;6.346;2023-04-27T00:33:02;11.60;;;7.90;;
5217;SDS011;26539;51.064;6.346;2023-04-27T00:36:01;14.80;;;9.20;;
5217;SDS011;26539;51.064;6.346;2023-04-27T00:38:40;10.55;;;8.38;;
5217;SDS011;26539;51.064;6.346;2023-04-27T00:41:37;13.75;;;8.55;;
5217;SDS011;26539;51.064;6.346;2023-04-27T00:47:32;11.90;;;8.95;;
5217;SDS011;26539;51.064;6.346;2023-04-27T00:57:00;12.80;;;8.75;;
5217;SDS011;26539;51.064;6.346;2023-04-27T00:59:35;12.95;;;9.00;;
5217;SDS011;26539;51.064;6.346;2023-04-27T01:02:28;13.00;;;9.40;;
5217;SDS011;26539;51.064;6.346;2023-04-27T01:05:20;17.55;;;9.52;;
5217;SDS011;26539;51.064;6.346;2023-04-27T01:07:54;18.85;;;10.63;;
5217;SDS011;26539;51.064;6.346;2023-04-27T01:10:45;17.23;;;10.20;;
5217;SDS011;26539;51.064;6.346;2023-04-27T01:13:21;13.60;;;10.05;;
5217;SDS011;26539;51.064;6.346;2023-04-27T01:16:01;13.30;;;10.45;;
5217;SDS011;26539;51.064;6.346;2023-04-27T01:18:40;16.15;;;9.35;;
5217;SDS011;26539;51.064;6.346;2023-04-27T01:21:15;14.80;;;9.63;;
5217;SDS011;26539;51.064;6.346;2023-04-27T01:23:52;19.77;;;11.27;;
5217;SDS011;26539;51.064;6.346;2023-04-27T01:27:00;17.67;;;9.85;;
5217;SDS011;26539;51.064;6.346;2023-04-27T01:32:24;14.32;;;9.52;;
5217;SDS011;26539;51.064;6.346;2023-04-27T01:38:53;13.57;;;9.75;;
5217;SDS011;26539;51.064;6.346;2023-04-27T01:41:56;13.48;;;9.90;;
5217;SDS011;26539;51.064;6.346;2023-04-27T01:45:16;15.80;;;10.15;;
5217;SDS011;26539;51.064;6.346;2023-04-27T01:48:04;15.43;;;8.68;;
5217;SDS011;26539;51.064;6.346;2023-04-27T01:51:15;14.02;;;8.93;;
5217;SDS011;26539;51.064;6.346;2023-04-27T01:53:56;24.38;;;10.52;;
5217;SDS011;26539;51.064;6.346;2023-04-27T01:59:33;15.63;;;9.20;;
5217;SDS011;26539;51.064;6.346;2023-04-27T02:02:20;13.38;;;9.55;;
5217;SDS011;26539;51.064;6.346;2023-04-27T02:04:59;12.57;;;8.65;;
5217;SDS011;26539;51.064;6.346;2023-04-27T02:08:03;14.02;;;8.88;;
5217;SDS011;26539;51.064;6.346;2023-04-27T02:11:18;14.35;;;9.80;;
5217;SDS011;26539;51.064;6.346;2023-04-27T02:14:00;13.48;;;8.15;;
5217;SDS011;26539;51.064;6.346;2023-04-27T02:23:34;16.38;;;9.15;;
5217;SDS011;26539;51.064;6.346;2023-04-27T02:35:36;15.65;;;9.73;;
5217;SDS011;26539;51.064;6.346;2023-04-27T02:38:19;14.30;;;7.90;;
5217;SDS011;26539;51.064;6.346;2023-04-27T02:47:05;18.08;;;9.75;;
5217;SDS011;26539;51.064;6.346;2023-04-27T02:53:11;14.00;;;8.90;;
5217;SDS011;26539;51.064;6.346;2023-04-27T02:55:49;14.57;;;8.60;;
5217;SDS011;26539;51.064;6.346;2023-04-27T02:58:43;15.52;;;8.73;;
5217;SDS011;26539;51.064;6.346;2023-04-27T03:05:42;14.35;;;8.50;;
5217;SDS011;26539;51.064;6.346;2023-04-27T03:08:24;14.70;;;8.68;;
5217;SDS011;26539;51.064;6.346;2023-04-27T03:10:50;17.98;;;9.45;;
5217;SDS011;26539;51.064;6.346;2023-04-27T03:13:39;21.85;;;9.13;;
5217;SDS011;26539;51.064;6.346;2023-04-27T03:19:24;16.92;;;9.90;;
5217;SDS011;26539;51.064;6.346;2023-04-27T03:22:37;14.07;;;9.85;;
5217;SDS011;26539;51.064;6.346;2023-04-27T03:34:23;13.40;;;8.40;;
5217;SDS011;26539;51.064;6.346;2023-04-27T03:36:55;14.65;;;9.75;;
5217;SDS011;26539;51.064;6.346;2023-04-27T03:40:00;15.13;;;8.57;;
5217;SDS011;26539;51.064;6.346;2023-04-27T03:45:59;18.60;;;9.82;;
5217;SDS011;26539;51.064;6.346;2023-04-27T03:52:17;16.23;;;9.63;;
5217;SDS011;26539;51.064;6.346;2023-04-27T03:55:34;15.38;;;8.68;;
5217;SDS011;26539;51.064;6.346;2023-04-27T03:58:18;14.35;;;9.00;;
5217;SDS011;26539;51.064;6.346;2023-04-27T04:00:52;13.73;;;9.20;;
5217;SDS011;26539;51.064;6.346;2023-04-27T04:03:28;12.73;;;8.95;;
5217;SDS011;26539;51.064;6.346;2023-04-27T04:09:33;13.43;;;10.05;;
5217;SDS011;26539;51.064;6.346;2023-04-27T04:12:48;15.88;;;9.00;;
5217;SDS011;26539;51.064;6.346;2023-04-27T04:15:32;17.17;;;9.68;;
5217;SDS011;26539;51.064;6.346;2023-04-27T04:18:17;15.95;;;9.23;;
5217;SDS011;26539;51.064;6.346;2023-04-27T04:21:16;14.25;;;9.73;;
5217;SDS011;26539;51.064;6.346;2023-04-27T04:24:09;20.95;;;9.48;;
5217;SDS011;26539;51.064;6.346;2023-04-27T04:27:13;18.70;;;10.07;;
5217;SDS011;26539;51.064;6.346;2023-04-27T04:30:24;14.30;;;8.80;;
5217;SDS011;26539;51.064;6.346;2023-04-27T04:36:31;16.90;;;9.32;;
5217;SDS011;26539;51.064;6.346;2023-04-27T04:39:25;19.08;;;10.60;;
5217;SDS011;26539;51.064;6.346;2023-04-27T04:42:33;18.25;;;11.73;;
5217;SDS011;26539;51.064;6.346;2023-04-27T04:51:44;17.27;;;9.10;;
5217;SDS011;26539;51.064;6.346;2023-04-27T04:57:53;15.30;;;9.52;;
5217;SDS011;26539;51.064;6.346;2023-04-27T05:03:25;11.23;;;8.00;;
5217;SDS011;26539;51.064;6.346;2023-04-27T05:06:38;14.65;;;8.88;;
5217;SDS011;26539;51.064;6.346;2023-04-27T05:09:00;14.52;;;9.95;;
5217;SDS011;26539;51.064;6.346;2023-04-27T05:11:42;19.98;;;9.70;;
5217;SDS011;26539;51.064;6.346;2023-04-27T05:14:13;14.60;;;9.32;;
5217;SDS011;26539;51.064;6.346;2023-04-27T05:17:08;16.20;;;10.45;;
5217;SDS011;26539;51.064;6.346;2023-04-27T05:22:45;14.17;;;8.60;;
5217;SDS011;26539;51.064;6.346;2023-04-27T05:28:24;16.60;;;8.97;;
5217;SDS011;26539;51.064;6.346;2023-04-27T05:41:44;11.80;;;8.80;;
5217;SDS011;26539;51.064;6.346;2023-04-27T05:44:10;9.60;;;8.27;;
5217;SDS011;26539;51.064;6.346;2023-04-27T05:46:38;13.33;;;9.83;;
5217;SDS011;26539;51.064;6.346;2023-04-27T05:49:27;12.40;;;9.60;;
5217;SDS011;26539;51.064;6.346;2023-04-27T05:52:38;10.13;;;9.13;;
5217;SDS011;26539;51.064;6.346;2023-04-27T05:55:31;11.40;;;9.00;;
5217;SDS011;26539;51.064;6.346;2023-04-27T05:58:02;9.43;;;8.43;;
5217;SDS011;26539;51.064;6.346;2023-04-27T06:00:30;8.73;;;7.83;;
5217;SDS011;26539;51.064;6.346;2023-04-27T06:03:13;9.77;;;8.23;;
5217;SDS011;26539;51.064;6.346;2023-04-27T06:05:44;9.77;;;8.77;;
5217;SDS011;26539;51.064;6.346;2023-04-27T06:08:17;18.20;;;8.70;;
5217;SDS011;26539;51.064;6.346;2023-04-27T06:10:46;13.60;;;8.50;;
5217;SDS011;26539;51.064;6.346;2023-04-27T06:13:12;11.10;;;9.00;;
5217;SDS011;26539;51.064;6.346;2023-04-27T06:15:42;10.43;;;7.67;;
5217;SDS011;26539;51.064;6.346;2023-04-27T06:18:08;11.17;;;7.80;;
5217;SDS011;26539;51.064;6.346;2023-04-27T06:20:39;12.77;;;8.70;;
5217;SDS011;26539;51.064;6.346;2023-04-27T06:23:37;14.10;;;8.80;;
5217;SDS011;26539;51.064;6.346;2023-04-27T06:26:26;10.33;;;8.30;;
5217;SDS011;26539;51.064;6.346;2023-04-27T06:29:19;12.43;;;8.80;;
5217;SDS011;26539;51.064;6.346;2023-04-27T06:31:53;13.97;;;9.87;;
5217;SDS011;26539;51.064;6.346;2023-04-27T06:34:21;11.50;;;8.33;;
5217;SDS011;26539;51.064;6.346;2023-04-27T06:37:20;9.50;;;8.50;;
5217;SDS011;26539;51.064;6.346;2023-04-27T06:40:32;12.10;;;8.70;;
5217;SDS011;26539;51.064;6.346;2023-04-27T06:43:01;14.10;;;9.33;;
5217;SDS011;26539;51.064;6.346;2023-04-27T06:45:47;14.23;;;8.70;;
5217;SDS011;26539;51.064;6.346;2023-04-27T06:48:23;14.10;;;7.47;;
5217;SDS011;26539;51.064;6.346;2023-04-27T06:51:05;8.77;;;7.30;;
5217;SDS011;26539;51.064;6.346;2023-04-27T06:53:50;14.87;;;9.00;;
5217;SDS011;26539;51.064;6.346;2023-04-27T06:56:35;12.90;;;8.13;;
5217;SDS011;26539;51.064;6.346;2023-04-27T06:59:27;10.33;;;9.20;;
5217;SDS011;26539;51.064;6.346;2023-04-27T07:01:59;14.57;;;9.50;;
5217;SDS011;26539;51.064;6.346;2023-04-27T07:04:39;11.17;;;9.00;;
5217;SDS011;26539;51.064;6.346;2023-04-27T07:07:05;11.90;;;8.97;;
5217;SDS011;26539;51.064;6.346;2023-04-27T07:09:33;12.77;;;10.20;;
5217;SDS011;26539;51.064;6.346;2023-04-27T07:12:08;12.23;;;10.87;;
5217;SDS011;26539;51.064;6.346;2023-04-27T07:14:59;12.57;;;8.67;;
5217;SDS011;26539;51.064;6.346;2023-04-27T07:26:05;12.40;;;8.83;;
5217;SDS011;26539;51.064;6.346;2023-04-27T07:28:33;10.87;;;9.77;;
5217;SDS011;26539;51.064;6.346;2023-04-27T07:30:59;9.93;;;8.93;;
5217;SDS011;26539;51.064;6.346;2023-04-27T07:33:32;12.87;;;9.37;;
5217;SDS011;26539;51.064;6.346;2023-04-27T07:35:58;11.27;;;8.67;;
5217;SDS011;26539;51.064;6.346;2023-04-27T07:38:26;10.30;;;9.23;;
5217;SDS011;26539;51.064;6.346;2023-04-27T07:40:57;21.20;;;12.50;;
5217;SDS011;26539;51.064;6.346;2023-04-27T07:43:31;11.30;;;9.23;;
5217;SDS011;26539;51.064;6.346;2023-04-27T07:46:24;8.97;;;8.07;;
5217;SDS011;26539;51.064;6.346;2023-04-27T07:49:14;9.77;;;7.90;;
5217;SDS011;26539;51.064;6.346;2023-04-27T07:55:09;12.77;;;8.67;;
5217;SDS011;26539;51.064;6.346;2023-04-27T08:00:17;13.50;;;8.33;;
5217;SDS011;26539;51.064;6.346;2023-04-27T08:02:53;14.73;;;8.30;;
5217;SDS011;26539;51.064;6.346;2023-04-27T08:05:19;10.23;;;8.13;;
5217;SDS011;26539;51.064;6.346;2023-04-27T08:07:48;13.07;;;8.80;;
5217;SDS011;26539;51.064;6.346;2023-04-27T08:10:14;12.80;;;8.17;;
5217;SDS011;26539;51.064;6.346;2023-04-27T08:12:44;9.43;;;7.70;;
5217;SDS011;26539;51.064;6.346;2023-04-27T08:15:13;10.23;;;9.00;;
5217;SDS011;26539;51.064;6.346;2023-04-27T08:17:38;11.80;;;8.80;;
5217;SDS011;26539;51.064;6.346;2023-04-27T08:20:06;11.57;;;9.13;;
5217;SDS011;26539;51.064;6.346;2023-04-27T08:22:35;9.33;;;8.43;;
5217;SDS011;26539;51.064;6.346;2023-04-27T08:25:01;9.93;;;8.93;;
5217;SDS011;26539;51.064;6.346;2023-04-27T08:27:28;9.50;;;8.50;;
5217;SDS011;26539;51.064;6.346;2023-04-27T08:29:54;9.23;;;8.30;;
5217;SDS011;26539;51.064;6.346;2023-04-27T08:32:20;10.00;;;8.63;;
5217;SDS011;26539;51.064;6.346;2023-04-27T08:34:46;9.73;;;8.67;;
5217;SDS011;26539;51.064;6.346;2023-04-27T08:37:12;9.00;;;7.97;;
5217;SDS011;26539;51.064;6.346;2023-04-27T08:39:40;9.80;;;8.80;;
5217;SDS011;26539;51.064;6.346;2023-04-27T08:42:13;11.77;;;8.60;;
5217;SDS011;26539;51.064;6.346;2023-04-27T08:44:46;9.13;;;7.67;;
5217;SDS011;26539;51.064;6.346;2023-04-27T08:47:20;8.73;;;7.83;;
5217;SDS011;26539;51.064;6.346;2023-04-27T08:49:56;8.97;;;7.63;;
5217;SDS011;26539;51.064;6.346;2023-04-27T08:52:24;7.87;;;7.07;;
5217;SDS011;26539;51.064;6.346;2023-04-27T08:54:57;8.50;;;6.77;;
5217;SDS011;26539;51.064;6.346;2023-04-27T08:57:22;14.87;;;7.80;;
5217;SDS011;26539;51.064;6.346;2023-04-27T08:59:56;8.20;;;7.50;;
5217;SDS011;26539;51.064;6.346;2023-04-27T09:02:24;9.37;;;8.40;;
5217;SDS011;26539;51.064;6.346;2023-04-27T09:04:51;10.27;;;7.47;;
5217;SDS011;26539;51.064;6.346;2023-04-27T09:07:17;8.83;;;8.03;;
5217;SDS011;26539;51.064;6.346;2023-04-27T09:09:43;16.37;;;9.10;;
5217;SDS011;26539;51.064;6.346;2023-04-27T09:12:27;10.00;;;7.53;;
5217;SDS011;26539;51.064;6.346;2023-04-27T09:14:56;13.87;;;7.90;;
5217;SDS011;26539;51.064;6.346;2023-04-27T09:17:30;9.10;;;7.40;;
5217;SDS011;26539;51.064;6.346;2023-04-27T09:20:03;7.90;;;6.50;;
5217;SDS011;26539;51.064;6.346;2023-04-27T09:22:47;7.57;;;6.70;;
5217;SDS011;26539;51.064;6.346;2023-04-27T09:25:26;9.03;;;7.87;;
5217;SDS011;26539;51.064;6.346;2023-04-27T09:27:54;8.87;;;7.83;;
5217;SDS011;26539;51.064;6.346;2023-04-27T09:30:20;10.47;;;7.63;;
5217;SDS011;26539;51.064;6.346;2023-04-27T09:32:56;9.50;;;7.90;;
5217;SDS011;26539;51.064;6.346;2023-04-27T09:35:24;9.50;;;8.00;;
5217;SDS011;26539;51.064;6.346;2023-04-27T09:37:53;12.67;;;8.60;;
5217;SDS011;26539;51.064;6.346;2023-04-27T09:40:20;11.43;;;8.23;;
5217;SDS011;26539;51.064;6.346;2023-04-27T09:42:50;9.83;;;6.73;;
5217;SDS011;26539;51.064;6.346;2023-04-27T09:45:16;13.63;;;7.47;;
5217;SDS011;26539;51.064;6.346;2023-04-27T09:47:43;9.40;;;8.37;;
5217;SDS011;26539;51.064;6.346;2023-04-27T09:50:10;8.87;;;7.33;;
5217;SDS011;26539;51.064;6.346;2023-04-27T09:52:37;9.97;;;7.03;;
5217;SDS011;26539;51.064;6.346;2023-04-27T09:55:07;11.20;;;6.60;;
5217;SDS011;26539;51.064;6.346;2023-04-27T09:57:41;12.60;;;8.00;;
5217;SDS011;26539;51.064;6.346;2023-04-27T10:00:19;12.30;;;7.20;;
5217;SDS011;26539;51.064;6.346;2023-04-27T10:03:14;11.63;;;7.17;;
5217;SDS011;26539;51.064;6.346;2023-04-27T10:08:52;9.13;;;8.13;;
5217;SDS011;26539;51.064;6.346;2023-04-27T10:11:31;9.63;;;6.87;;
5217;SDS011;26539;51.064;6.346;2023-04-27T10:14:20;11.30;;;7.27;;
5217;SDS011;26539;51.064;6.346;2023-04-27T10:16:56;9.23;;;7.40;;
5217;SDS011;26539;51.064;6.346;2023-04-27T10:19:22;10.10;;;7.83;;
5217;SDS011;26539;51.064;6.346;2023-04-27T10:21:59;8.30;;;6.43;;
5217;SDS011;26539;51.064;6.346;2023-04-27T10:24:31;7.70;;;5.90;;
5217;SDS011;26539;51.064;6.346;2023-04-27T10:27:09;12.90;;;7.70;;
5217;SDS011;26539;51.064;6.346;2023-04-27T10:32:27;12.70;;;7.70;;
5217;SDS011;26539;51.064;6.346;2023-04-27T10:35:11;11.83;;;8.17;;
5217;SDS011;26539;51.064;6.346;2023-04-27T10:37:37;11.83;;;8.27;;
5217;SDS011;26539;51.064;6.346;2023-04-27T10:40:06;10.27;;;8.13;;
5217;SDS011;26539;51.064;6.346;2023-04-27T10:42:34;8.00;;;7.20;;
5217;SDS011;26539;51.064;6.346;2023-04-27T10:45:00;8.60;;;7.53;;
5217;SDS011;26539;51.064;6.346;2023-04-27T10:50:22;10.53;;;8.30;;
5217;SDS011;26539;51.064;6.346;2023-04-27T10:52:48;11.63;;;7.87;;
5217;SDS011;26539;51.064;6.346;2023-04-27T10:55:14;13.43;;;8.50;;
5217;SDS011;26539;51.064;6.346;2023-04-27T10:57:59;10.53;;;7.77;;
5217;SDS011;26539;51.064;6.346;2023-04-27T11:00:29;9.13;;;7.93;;
5217;SDS011;26539;51.064;6.346;2023-04-27T11:03:10;10.60;;;8.57;;
5217;SDS011;26539;51.064;6.346;2023-04-27T11:05:38;17.50;;;8.53;;
5217;SDS011;26539;51.064;6.346;2023-04-27T11:08:08;10.90;;;7.60;;
5217;SDS011;26539;51.064;6.346;2023-04-27T11:13:16;12.93;;;11.53;;
5217;SDS011;26539;51.064;6.346;2023-04-27T11:15:49;13.90;;;11.17;;
5217;SDS011;26539;51.064;6.346;2023-04-27T11:18:25;17.57;;;12.73;;
5217;SDS011;26539;51.064;6.346;2023-04-27T11:20:54;13.97;;;11.87;;
5217;SDS011;26539;51.064;6.346;2023-04-27T11:23:40;15.60;;;12.07;;
5217;SDS011;26539;51.064;6.346;2023-04-27T11:28:35;15.60;;;12.67;;
5217;SDS011;26539;51.064;6.346;2023-04-27T11:31:01;13.30;;;10.23;;
5217;SDS011;26539;51.064;6.346;2023-04-27T11:33:28;13.80;;;9.63;;
5217;SDS011;26539;51.064;6.346;2023-04-27T11:35:54;16.77;;;11.67;;
5217;SDS011;26539;51.064;6.346;2023-04-27T11:38:20;11.67;;;10.30;;
5217;SDS011;26539;51.064;6.346;2023-04-27T11:40:57;13.00;;;10.77;;
5217;SDS011;26539;51.064;6.346;2023-04-27T11:43:27;13.10;;;10.77;;
5217;SDS011;26539;51.064;6.346;2023-04-27T11:45:54;13.77;;;10.13;;
5217;SDS011;26539;51.064;6.346;2023-04-27T11:48:21;14.17;;;10.57;;
5217;SDS011;26539;51.064;6.346;2023-04-27T11:50:48;15.10;;;9.90;;
5217;SDS011;26539;51.064;6.346;2023-04-27T11:53:15;11.53;;;8.77;;
5217;SDS011;26539;51.064;6.346;2023-04-27T11:55:41;11.60;;;9.50;;
5217;SDS011;26539;51.064;6.346;2023-04-27T11:58:16;12.40;;;9.87;;
5217;SDS011;26539;51.064;6.346;2023-04-27T12:00:42;14.70;;;10.70;;
5217;SDS011;26539;51.064;6.346;2023-04-27T12:03:08;11.90;;;9.10;;
5217;SDS011;26539;51.064;6.346;2023-04-27T12:05:46;11.50;;;8.77;;
5217;SDS011;26539;51.064;6.346;2023-04-27T12:08:28;10.43;;;9.33;;
5217;SDS011;26539;51.064;6.346;2023-04-27T12:11:04;11.93;;;9.27;;
5217;SDS011;26539;51.064;6.346;2023-04-27T12:13:32;13.10;;;8.90;;
5217;SDS011;26539;51.064;6.346;2023-04-27T12:15:58;9.43;;;8.43;;
5217;SDS011;26539;51.064;6.346;2023-04-27T12:18:23;12.23;;;9.50;;
5217;SDS011;26539;51.064;6.346;2023-04-27T12:20:49;10.60;;;9.50;;
5217;SDS011;26539;51.064;6.346;2023-04-27T12:23:15;13.73;;;11.00;;
5217;SDS011;26539;51.064;6.346;2023-04-27T12:25:40;10.37;;;9.20;;
5217;SDS011;26539;51.064;6.346;2023-04-27T12:28:08;12.63;;;9.63;;
5217;SDS011;26539;51.064;6.346;2023-04-27T12:30:33;10.97;;;8.90;;
5217;SDS011;26539;51.064;6.346;2023-04-27T12:32:59;11.03;;;9.53;;
5217;SDS011;26539;51.064;6.346;2023-04-27T12:35:24;12.33;;;8.97;;
5217;SDS011;26539;51.064;6.346;2023-04-27T12:37:50;14.13;;;9.17;;
5217;SDS011;26539;51.064;6.346;2023-04-27T12:40:16;12.40;;;10.53;;
5217;SDS011;26539;51.064;6.346;2023-04-27T12:42:42;17.00;;;10.90;;
5217;SDS011;26539;51.064;6.346;2023-04-27T12:45:07;12.57;;;10.20;;
5217;SDS011;26539;51.064;6.346;2023-04-27T12:47:33;13.70;;;11.30;;
5217;SDS011;26539;51.064;6.346;2023-04-27T12:49:59;17.87;;;12.00;;
5217;SDS011;26539;51.064;6.346;2023-04-27T12:52:25;12.83;;;11.00;;
5217;SDS011;26539;51.064;6.346;2023-04-27T12:54:51;16.37;;;10.90;;
5217;SDS011;26539;51.064;6.346;2023-04-27T12:57:21;12.60;;;11.30;;
5217;SDS011;26539;51.064;6.346;2023-04-27T12:59:47;13.10;;;11.10;;
5217;SDS011;26539;51.064;6.346;2023-04-27T13:02:12;13.63;;;12.30;;
5217;SDS011;26539;51.064;6.346;2023-04-27T13:04:38;13.30;;;11.90;;
5217;SDS011;26539;51.064;6.346;2023-04-27T13:07:03;14.27;;;12.03;;
5217;SDS011;26539;51.064;6.346;2023-04-27T13:09:30;16.03;;;14.00;;
5217;SDS011;26539;51.064;6.346;2023-04-27T13:11:55;14.73;;;11.93;;
5217;SDS011;26539;51.064;6.346;2023-04-27T13:14:22;17.27;;;11.77;;
5217;SDS011;26539;51.064;6.346;2023-04-27T13:16:48;14.20;;;10.67;;
5217;SDS011;26539;51.064;6.346;2023-04-27T13:19:14;16.63;;;13.33;;
5217;SDS011;26539;51.064;6.346;2023-04-27T13:21:39;18.00;;;12.50;;
5217;SDS011;26539;51.064;6.346;2023-04-27T13:24:05;13.23;;;11.53;;
5217;SDS011;26539;51.064;6.346;2023-04-27T13:26:31;16.10;;;12.60;;
5217;SDS011;26539;51.064;6.346;2023-04-27T13:28:56;14.80;;;13.30;;
5217;SDS011;26539;51.064;6.346;2023-04-27T13:31:22;16.43;;;12.90;;
5217;SDS011;26539;51.064;6.346;2023-04-27T13:33:48;12.00;;;10.80;;
5217;SDS011;26539;51.064;6.346;2023-04-27T13:36:14;16.13;;;11.40;;
5217;SDS011;26539;51.064;6.346;2023-04-27T13:38:39;13.57;;;10.50;;
5217;SDS011;26539;51.064;6.346;2023-04-27T13:41:05;18.53;;;11.47;;
5217;SDS011;26539;51.064;6.346;2023-04-27T13:43:31;16.20;;;12.23;;
5217;SDS011;26539;51.064;6.346;2023-04-27T13:45:57;13.00;;;11.20;;
5217;SDS011;26539;51.064;6.346;2023-04-27T13:48:23;15.57;;;11.67;;
5217;SDS011;26539;51.064;6.346;2023-04-27T13:50:49;16.63;;;11.90;;
5217;SDS011;26539;51.064;6.346;2023-04-27T13:53:15;14.67;;;10.87;;
5217;SDS011;26539;51.064;6.346;2023-04-27T13:55:41;16.33;;;11.50;;
5217;SDS011;26539;51.064;6.346;2023-04-27T13:58:07;16.30;;;10.93;;
5217;SDS011;26539;51.064;6.346;2023-04-27T14:00:32;15.13;;;10.90;;
5217;SDS011;26539;51.064;6.346;2023-04-27T14:02:58;14.00;;;10.10;;
5217;SDS011;26539;51.064;6.346;2023-04-27T14:05:25;13.77;;;9.37;;
5217;SDS011;26539;51.064;6.346;2023-04-27T14:07:51;14.63;;;9.63;;
5217;SDS011;26539;51.064;6.346;2023-04-27T14:10:17;13.40;;;10.50;;
5217;SDS011;26539;51.064;6.346;2023-04-27T14:12:43;17.20;;;10.93;;
5217;SDS011;26539;51.064;6.346;2023-04-27T14:15:09;16.27;;;10.63;;
5217;SDS011;26539;51.064;6.346;2023-04-27T14:17:34;16.90;;;10.47;;
5217;SDS011;26539;51.064;6.346;2023-04-27T14:20:00;17.83;;;10.43;;
5217;SDS011;26539;51.064;6.346;2023-04-27T14:22:25;15.67;;;11.23;;
5217;SDS011;26539;51.064;6.346;2023-04-27T14:24:51;14.80;;;10.67;;
5217;SDS011;26539;51.064;6.346;2023-04-27T14:27:17;16.30;;;10.63;;
5217;SDS011;26539;51.064;6.346;2023-04-27T14:29:42;12.73;;;10.43;;
5217;SDS011;26539;51.064;6.346;2023-04-27T14:32:08;16.07;;;10.17;;
5217;SDS011;26539;51.064;6.346;2023-04-27T14:34:33;14.20;;;9.73;;
5217;SDS011;26539;51.064;6.346;2023-04-27T14:36:59;14.50;;;10.00;;
5217;SDS011;26539;51.064;6.346;2023-04-27T14:39:25;17.00;;;11.30;;
5217;SDS011;26539;51.064;6.346;2023-04-27T14:41:52;13.50;;;10.47;;
5217;SDS011;26539;51.064;6.346;2023-04-27T14:44:17;14.87;;;10.73;;
5217;SDS011;26539;51.064;6.346;2023-04-27T14:46:43;16.23;;;11.50;;
5217;SDS011;26539;51.064;6.346;2023-04-27T14:49:08;22.93;;;11.67;;
5217;SDS011;26539;51.064;6.346;2023-04-27T14:51:34;18.50;;;11.87;;
5217;SDS011;26539;51.064;6.346;2023-04-27T14:54:00;17.80;;;11.90;;
5217;SDS011;26539;51.064;6.346;2023-04-27T14:56:26;17.57;;;10.80;;
5217;SDS011;26539;51.064;6.346;2023-04-27T14:58:51;15.13;;;10.93;;
5217;SDS011;26539;51.064;6.346;2023-04-27T15:01:19;12.90;;;10.90;;
5217;SDS011;26539;51.064;6.346;2023-04-27T15:03:44;16.00;;;10.97;;
5217;SDS011;26539;51.064;6.346;2023-04-27T15:06:10;16.67;;;10.93;;
5217;SDS011;26539;51.064;6.346;2023-04-27T15:08:36;24.50;;;11.80;;
5217;SDS011;26539;51.064;6.346;2023-04-27T15:11:01;17.73;;;10.77;;
5217;SDS011;26539;51.064;6.346;2023-04-27T15:13:28;12.90;;;9.70;;
5217;SDS011;26539;51.064;6.346;2023-04-27T15:15:57;18.43;;;11.30;;
5217;SDS011;26539;51.064;6.346;2023-04-27T15:18:24;16.10;;;11.30;;
5217;SDS011;26539;51.064;6.346;2023-04-27T15:20:51;17.57;;;11.50;;
5217;SDS011;26539;51.064;6.346;2023-04-27T15:23:18;15.50;;;11.90;;
5217;SDS011;26539;51.064;6.346;2023-04-27T15:25:44;15.83;;;11.87;;
5217;SDS011;26539;51.064;6.346;2023-04-27T15:28:11;16.03;;;10.60;;
5217;SDS011;26539;51.064;6.346;2023-04-27T15:30:36;13.70;;;10.03;;
5217;SDS011;26539;51.064;6.346;2023-04-27T15:33:02;21.27;;;11.87;;
5217;SDS011;26539;51.064;6.346;2023-04-27T15:35:27;14.17;;;11.27;;
5217;SDS011;26539;51.064;6.346;2023-04-27T15:37:53;13.40;;;10.53;;
5217;SDS011;26539;51.064;6.346;2023-04-27T15:40:18;14.93;;;12.43;;
5217;SDS011;26539;51.064;6.346;2023-04-27T15:42:44;16.47;;;11.07;;
5217;SDS011;26539;51.064;6.346;2023-04-27T15:45:09;16.07;;;10.80;;
5217;SDS011;26539;51.064;6.346;2023-04-27T15:47:35;12.20;;;10.03;;
5217;SDS011;26539;51.064;6.346;2023-04-27T15:50:01;14.27;;;11.30;;
5217;SDS011;26539;51.064;6.346;2023-04-27T15:52:38;14.87;;;10.67;;
5217;SDS011;26539;51.064;6.346;2023-04-27T15:55:04;18.33;;;10.17;;
5217;SDS011;26539;51.064;6.346;2023-04-27T15:57:30;12.40;;;10.23;;
5217;SDS011;26539;51.064;6.346;2023-04-27T15:59:55;13.40;;;10.57;;
5217;SDS011;26539;51.064;6.346;2023-04-27T16:02:23;15.47;;;10.00;;
5217;SDS011;26539;51.064;6.346;2023-04-27T16:04:48;15.47;;;10.70;;
5217;SDS011;26539;51.064;6.346;2023-04-27T16:07:14;19.07;;;11.40;;
5217;SDS011;26539;51.064;6.346;2023-04-27T16:09:40;15.77;;;11.13;;
5217;SDS011;26539;51.064;6.346;2023-04-27T16:12:05;16.13;;;10.60;;
5217;SDS011;26539;51.064;6.346;2023-04-27T16:14:33;14.20;;;10.10;;
5217;SDS011;26539;51.064;6.346;2023-04-27T16:17:08;15.37;;;10.37;;
5217;SDS011;26539;51.064;6.346;2023-04-27T16:19:33;17.33;;;11.50;;
5217;SDS011;26539;51.064;6.346;2023-04-27T16:21:59;15.43;;;11.77;;
5217;SDS011;26539;51.064;6.346;2023-04-27T16:24:25;25.53;;;13.20;;
5217;SDS011;26539;51.064;6.346;2023-04-27T16:26:53;16.10;;;12.27;;
5217;SDS011;26539;51.064;6.346;2023-04-27T16:29:18;17.33;;;11.87;;
5217;SDS011;26539;51.064;6.346;2023-04-27T16:31:44;18.40;;;11.63;;
5217;SDS011;26539;51.064;6.346;2023-04-27T16:34:13;16.73;;;11.17;;
5217;SDS011;26539;51.064;6.346;2023-04-27T16:36:39;18.40;;;12.00;;
5217;SDS011;26539;51.064;6.346;2023-04-27T16:39:05;14.80;;;10.63;;
5217;SDS011;26539;51.064;6.346;2023-04-27T16:41:30;17.33;;;11.13;;
5217;SDS011;26539;51.064;6.346;2023-04-27T16:43:56;13.60;;;10.10;;
5217;SDS011;26539;51.064;6.346;2023-04-27T16:46:21;15.97;;;10.60;;
5217;SDS011;26539;51.064;6.346;2023-04-27T16:48:47;14.97;;;11.13;;
5217;SDS011;26539;51.064;6.346;2023-04-27T16:51:12;16.97;;;10.10;;
5217;SDS011;26539;51.064;6.346;2023-04-27T16:53:43;15.97;;;10.97;;
5217;SDS011;26539;51.064;6.346;2023-04-27T16:56:26;15.20;;;10.80;;
5217;SDS011;26539;51.064;6.346;2023-04-27T16:58:57;16.70;;;11.97;;
5217;SDS011;26539;51.064;6.346;2023-04-27T17:01:23;15.90;;;11.97;;
5217;SDS011;26539;51.064;6.346;2023-04-27T17:03:51;14.97;;;11.07;;
5217;SDS011;26539;51.064;6.346;2023-04-27T17:06:22;17.10;;;11.00;;
5217;SDS011;26539;51.064;6.346;2023-04-27T17:08:52;18.77;;;11.70;;
5217;SDS011;26539;51.064;6.346;2023-04-27T17:11:22;16.20;;;12.20;;
5217;SDS011;26539;51.064;6.346;2023-04-27T17:13:48;19.40;;;11.63;;
5217;SDS011;26539;51.064;6.346;2023-04-27T17:16:44;17.57;;;12.43;;
5217;SDS011;26539;51.064;6.346;2023-04-27T17:19:16;16.67;;;10.77;;
5217;SDS011;26539;51.064;6.346;2023-04-27T17:25:11;14.10;;;10.83;;
5217;SDS011;26539;51.064;6.346;2023-04-27T17:27:51;22.77;;;12.30;;
5217;SDS011;26539;51.064;6.346;2023-04-27T17:30:39;19.87;;;11.10;;
5217;SDS011;26539;51.064;6.346;2023-04-27T17:33:52;17.63;;;10.50;;
5217;SDS011;26539;51.064;6.346;2023-04-27T17:40:04;13.47;;;10.53;;
5217;SDS011;26539;51.064;6.346;2023-04-27T17:45:44;15.80;;;10.30;;
5217;SDS011;26539;51.064;6.346;2023-04-27T17:48:33;22.40;;;12.83;;